createdAt,value
2022-07-27T00:00:49.659Z,0.00
2022-07-27T00:01:50.867Z,0.00
2022-07-27T00:02:51.538Z,0.00
2022-07-27T00:03:49.661Z,0.00
2022-07-27T00:04:49.615Z,0.00
2022-07-27T00:05:49.572Z,0.00
2022-07-27T00:06:49.553Z,0.00
2022-07-27T00:07:49.569Z,0.00
2022-07-27T00:08:49.544Z,0.00
2022-07-27T00:09:49.523Z,0.00
2022-07-27T00:10:49.523Z,0.00
2022-07-27T00:11:49.506Z,0.00
2022-07-27T00:12:49.489Z,0.00
2022-07-27T00:13:49.500Z,0.00
2022-07-27T00:14:49.465Z,0.00
2022-07-27T00:15:49.555Z,0.00
2022-07-27T00:16:49.502Z,0.00
2022-07-27T00:17:49.437Z,0.00
2022-07-27T00:18:49.438Z,0.00
2022-07-27T00:19:49.414Z,0.00
2022-07-27T00:20:49.392Z,0.00
2022-07-27T00:21:49.399Z,0.00
2022-07-27T00:22:49.395Z,0.00
2022-07-27T00:23:49.365Z,0.00
2022-07-27T00:24:49.403Z,0.00
2022-07-27T00:25:49.349Z,0.00
2022-07-27T00:26:49.329Z,0.00
2022-07-27T00:27:49.318Z,0.00
2022-07-27T00:28:49.321Z,0.00
2022-07-27T00:29:49.306Z,0.00
2022-07-27T00:30:49.291Z,0.00
2022-07-27T00:31:49.291Z,0.00
2022-07-27T00:32:49.261Z,0.00
2022-07-27T00:33:49.246Z,0.00
2022-07-27T00:34:49.246Z,0.00
2022-07-27T00:35:49.239Z,0.00
2022-07-27T00:36:49.210Z,0.00
2022-07-27T00:37:49.202Z,0.00
2022-07-27T00:38:49.185Z,0.00
2022-07-27T00:39:49.180Z,0.00
2022-07-27T00:40:49.206Z,0.00
2022-07-27T00:41:49.155Z,0.00
2022-07-27T00:42:49.154Z,0.00
2022-07-27T00:43:49.135Z,0.00
2022-07-27T00:44:49.123Z,0.00
2022-07-27T00:45:49.132Z,0.00
2022-07-27T00:46:49.291Z,0.00
2022-07-27T00:47:54.589Z,0.00
2022-07-27T00:48:50.194Z,0.00
2022-07-27T00:49:49.068Z,0.00
2022-07-27T00:50:49.066Z,0.00
2022-07-27T00:51:49.047Z,0.00
2022-07-27T00:52:49.037Z,0.00
2022-07-27T00:53:49.021Z,0.00
2022-07-27T00:54:49.027Z,0.00
2022-07-27T00:55:49.009Z,0.00
2022-07-27T00:56:48.988Z,0.00
2022-07-27T00:57:58.162Z,0.00
2022-07-27T00:58:49.964Z,0.00
2022-07-27T00:59:48.952Z,0.00
2022-07-27T01:00:48.971Z,0.00
2022-07-27T01:01:49.065Z,0.00
2022-07-27T01:02:49.078Z,0.00
2022-07-27T01:03:48.910Z,0.00
2022-07-27T01:04:48.892Z,0.00
2022-07-27T01:05:48.903Z,0.00
2022-07-27T01:06:48.871Z,0.00
2022-07-27T01:07:48.866Z,0.00
2022-07-27T01:08:48.851Z,0.00
2022-07-27T01:09:48.843Z,0.00
2022-07-27T01:10:48.840Z,0.00
2022-07-27T01:11:48.816Z,0.00
2022-07-27T01:12:48.814Z,0.00
2022-07-27T01:13:48.793Z,0.00
2022-07-27T01:14:48.783Z,0.00
2022-07-27T01:15:48.874Z,0.00
2022-07-27T01:16:48.758Z,0.00
2022-07-27T01:17:48.771Z,0.00
2022-07-27T01:18:48.736Z,0.00
2022-07-27T01:19:48.740Z,0.00
2022-07-27T01:20:48.716Z,0.00
2022-07-27T01:21:48.702Z,0.00
2022-07-27T01:22:48.858Z,0.00
2022-07-27T01:23:48.680Z,0.00
2022-07-27T01:24:48.667Z,0.00
2022-07-27T01:25:48.664Z,0.00
2022-07-27T01:26:48.661Z,0.00
2022-07-27T01:27:48.654Z,0.00
2022-07-27T01:28:48.622Z,0.00
2022-07-27T01:29:48.615Z,0.00
2022-07-27T01:30:48.743Z,0.00
2022-07-27T01:31:48.694Z,0.00
2022-07-27T01:32:48.587Z,0.00
2022-07-27T01:33:48.597Z,0.00
2022-07-27T01:34:48.576Z,0.00
2022-07-27T01:35:48.559Z,0.00
2022-07-27T01:36:48.540Z,0.00
2022-07-27T01:37:48.544Z,0.00
2022-07-27T01:38:48.515Z,0.00
2022-07-27T01:39:48.527Z,0.00
2022-07-27T01:40:48.489Z,0.00
2022-07-27T01:41:48.492Z,0.00
2022-07-27T01:42:48.469Z,0.00
2022-07-27T01:43:48.455Z,0.00
2022-07-27T01:44:48.466Z,0.00
2022-07-27T01:45:48.433Z,0.00
2022-07-27T01:46:48.514Z,0.00
2022-07-27T01:47:48.430Z,0.00
2022-07-27T01:48:48.473Z,0.00
2022-07-27T01:49:48.394Z,0.00
2022-07-27T01:50:48.406Z,0.00
2022-07-27T01:51:48.376Z,0.00
2022-07-27T01:52:48.371Z,0.00
2022-07-27T01:53:48.365Z,0.00
2022-07-27T01:54:48.341Z,0.00
2022-07-27T01:55:48.355Z,0.00
2022-07-27T01:56:48.380Z,0.00
2022-07-27T01:57:48.298Z,0.00
2022-07-27T01:58:48.367Z,0.00
2022-07-27T01:59:48.272Z,0.00
2022-07-27T02:00:48.270Z,0.00
2022-07-27T02:01:48.315Z,0.00
2022-07-27T02:02:48.249Z,0.00
2022-07-27T02:03:48.230Z,0.00
2022-07-27T02:04:48.297Z,0.00
2022-07-27T02:05:48.366Z,0.00
2022-07-27T02:06:48.202Z,0.00
2022-07-27T02:07:48.215Z,0.00
2022-07-27T02:08:48.189Z,0.00
2022-07-27T02:09:48.163Z,0.00
2022-07-27T02:10:48.158Z,0.00
2022-07-27T02:11:48.139Z,0.00
2022-07-27T02:12:48.136Z,0.00
2022-07-27T02:13:48.154Z,0.00
2022-07-27T02:14:48.107Z,0.00
2022-07-27T02:15:48.187Z,0.00
2022-07-27T02:16:48.084Z,0.00
2022-07-27T02:17:48.079Z,0.00
2022-07-27T02:18:48.906Z,0.00
2022-07-27T02:19:48.048Z,0.00
2022-07-27T02:20:48.039Z,0.00
2022-07-27T02:21:48.031Z,0.00
2022-07-27T02:22:48.029Z,0.00
2022-07-27T02:23:48.030Z,0.00
2022-07-27T02:24:48.013Z,0.00
2022-07-27T02:25:47.980Z,0.00
2022-07-27T02:26:49.561Z,0.00
2022-07-27T02:27:47.960Z,0.00
2022-07-27T02:28:47.958Z,0.00
2022-07-27T02:29:47.953Z,0.00
2022-07-27T02:30:47.947Z,0.00
2022-07-27T02:31:47.918Z,0.00
2022-07-27T02:32:47.936Z,0.00
2022-07-27T02:33:47.914Z,0.00
2022-07-27T02:34:47.890Z,0.00
2022-07-27T02:35:47.888Z,0.00
2022-07-27T02:36:47.861Z,0.00
2022-07-27T02:37:47.858Z,0.00
2022-07-27T02:38:47.835Z,0.00
2022-07-27T02:39:47.841Z,0.00
2022-07-27T02:40:47.822Z,0.00
2022-07-27T02:41:47.827Z,0.00
2022-07-27T02:42:47.793Z,0.00
2022-07-27T02:43:47.789Z,0.00
2022-07-27T02:44:47.787Z,0.00
2022-07-27T02:45:47.803Z,0.00
2022-07-27T02:46:47.805Z,0.00
2022-07-27T02:47:47.734Z,0.00
2022-07-27T02:48:47.817Z,0.00
2022-07-27T02:49:47.728Z,0.00
2022-07-27T02:50:47.709Z,0.00
2022-07-27T02:51:47.689Z,0.00
2022-07-27T02:52:47.692Z,0.00
2022-07-27T02:53:47.668Z,0.00
2022-07-27T02:54:47.681Z,0.00
2022-07-27T02:55:47.650Z,0.00
2022-07-27T02:56:47.635Z,0.00
2022-07-27T02:57:47.635Z,0.00
2022-07-27T02:58:47.613Z,0.00
2022-07-27T02:59:47.599Z,0.00
2022-07-27T03:00:47.604Z,0.00
2022-07-27T03:01:47.638Z,0.00
2022-07-27T03:02:47.583Z,0.00
2022-07-27T03:03:47.554Z,0.00
2022-07-27T03:04:47.616Z,0.00
2022-07-27T03:05:47.545Z,0.00
2022-07-27T03:06:47.536Z,0.00
2022-07-27T03:07:47.513Z,0.00
2022-07-27T03:08:47.502Z,0.00
2022-07-27T03:09:52.381Z,0.00
2022-07-27T03:10:48.541Z,0.00
2022-07-27T03:11:47.476Z,0.00
2022-07-27T03:12:47.467Z,0.00
2022-07-27T03:13:47.442Z,0.00
2022-07-27T03:14:47.442Z,0.00
2022-07-27T03:15:47.524Z,0.00
2022-07-27T03:16:47.426Z,4.00
2022-07-27T03:17:47.489Z,0.00
2022-07-27T03:18:49.672Z,0.00
2022-07-27T03:19:47.373Z,0.00
2022-07-27T03:20:47.398Z,4.00
2022-07-27T03:21:47.369Z,4.00
2022-07-27T03:22:47.343Z,0.00
2022-07-27T03:23:47.341Z,4.00
2022-07-27T03:24:47.318Z,0.00
2022-07-27T03:25:47.362Z,4.00
2022-07-27T03:26:47.311Z,4.00
2022-07-27T03:27:47.282Z,4.00
2022-07-27T03:28:47.278Z,4.00
2022-07-27T03:29:47.261Z,4.00
2022-07-27T03:30:47.357Z,8.00
2022-07-27T03:31:47.271Z,4.00
2022-07-27T03:32:47.239Z,8.00
2022-07-27T03:33:47.213Z,8.00
2022-07-27T03:34:47.210Z,8.00
2022-07-27T03:35:47.201Z,12.00
2022-07-27T03:36:47.277Z,12.00
2022-07-27T03:37:47.172Z,12.00
2022-07-27T03:38:47.161Z,12.00
2022-07-27T03:39:47.172Z,12.00
2022-07-27T03:40:47.151Z,12.00
2022-07-27T03:41:47.132Z,16.00
2022-07-27T03:42:47.131Z,16.00
2022-07-27T03:43:47.105Z,20.00
2022-07-27T03:44:47.110Z,20.00
2022-07-27T03:45:47.141Z,20.00
2022-07-27T03:46:47.093Z,24.00
2022-07-27T03:47:47.083Z,28.00
2022-07-27T03:48:47.089Z,28.00
2022-07-27T03:49:47.043Z,28.00
2022-07-27T03:50:47.029Z,28.00
2022-07-27T03:51:47.024Z,32.00
2022-07-27T03:52:47.004Z,32.00
2022-07-27T03:53:47.003Z,36.00
2022-07-27T03:54:47.001Z,40.00
2022-07-27T03:55:46.969Z,36.00
2022-07-27T03:56:46.973Z,36.00
2022-07-27T03:57:46.969Z,36.00
2022-07-27T03:58:46.936Z,44.00
2022-07-27T03:59:46.949Z,52.00
2022-07-27T04:00:46.941Z,56.00
2022-07-27T04:01:47.035Z,56.00
2022-07-27T04:02:46.988Z,52.00
2022-07-27T04:03:46.893Z,56.00
2022-07-27T04:04:46.889Z,60.00
2022-07-27T04:05:46.853Z,72.00
2022-07-27T04:06:46.852Z,72.00
2022-07-27T04:07:46.833Z,68.00
2022-07-27T04:08:46.832Z,68.00
2022-07-27T04:09:47.279Z,68.00
2022-07-27T04:10:46.801Z,76.00
2022-07-27T04:11:50.906Z,88.00
2022-07-27T04:12:46.804Z,88.00
2022-07-27T04:13:47.412Z,88.00
2022-07-27T04:14:46.769Z,84.00
2022-07-27T04:15:46.741Z,96.00
2022-07-27T04:16:46.838Z,112.00
2022-07-27T04:17:54.999Z,128.00
2022-07-27T04:18:47.712Z,136.00
2022-07-27T04:19:46.720Z,136.00
2022-07-27T04:20:46.707Z,132.00
2022-07-27T04:21:46.696Z,152.00
2022-07-27T04:22:46.673Z,172.00
2022-07-27T04:23:46.657Z,192.00
2022-07-27T04:24:46.700Z,192.00
2022-07-27T04:25:46.633Z,188.00
2022-07-27T04:26:46.629Z,196.00
2022-07-27T04:27:46.612Z,216.00
2022-07-27T04:28:46.616Z,244.00
2022-07-27T04:29:46.594Z,252.00
2022-07-27T04:30:46.649Z,252.00
2022-07-27T04:31:46.568Z,256.00
2022-07-27T04:32:46.560Z,284.00
2022-07-27T04:33:46.559Z,328.00
2022-07-27T04:34:46.556Z,352.00
2022-07-27T04:35:46.563Z,336.00
2022-07-27T04:36:46.513Z,328.00
2022-07-27T04:37:58.415Z,332.00
2022-07-27T04:38:47.527Z,344.00
2022-07-27T04:39:46.476Z,384.00
2022-07-27T04:40:46.487Z,380.00
2022-07-27T04:41:46.454Z,344.00
2022-07-27T04:42:49.313Z,324.00
2022-07-27T04:43:46.455Z,328.00
2022-07-27T04:44:46.422Z,340.00
2022-07-27T04:45:46.529Z,352.00
2022-07-27T04:46:46.438Z,332.00
2022-07-27T04:47:46.385Z,304.00
2022-07-27T04:48:49.407Z,288.00
2022-07-27T04:49:46.387Z,288.00
2022-07-27T04:50:46.355Z,284.00
2022-07-27T04:51:46.364Z,304.00
2022-07-27T04:52:46.329Z,328.00
2022-07-27T04:53:56.771Z,316.00
2022-07-27T04:54:47.308Z,300.00
2022-07-27T04:55:46.325Z,300.00
2022-07-27T04:56:46.317Z,320.00
2022-07-27T04:57:46.279Z,340.00
2022-07-27T04:58:46.306Z,344.00
2022-07-27T04:59:46.259Z,316.00
2022-07-27T05:00:46.348Z,292.00
2022-07-27T05:01:46.291Z,276.00
2022-07-27T05:02:46.227Z,284.00
2022-07-27T05:03:46.234Z,300.00
2022-07-27T05:04:46.212Z,296.00
2022-07-27T05:05:49.988Z,280.00
2022-07-27T05:06:46.232Z,260.00
2022-07-27T05:07:46.173Z,276.00
2022-07-27T05:08:46.153Z,312.00
2022-07-27T05:09:46.143Z,328.00
2022-07-27T05:10:46.139Z,324.00
2022-07-27T05:11:50.838Z,304.00
2022-07-27T05:12:47.125Z,300.00
2022-07-27T05:13:46.124Z,340.00
2022-07-27T05:14:46.082Z,372.00
2022-07-27T05:15:55.388Z,376.00
2022-07-27T05:16:47.139Z,372.00
2022-07-27T05:17:46.049Z,380.00
2022-07-27T05:18:46.040Z,452.00
2022-07-27T05:19:46.028Z,524.00
2022-07-27T05:20:46.048Z,560.00
2022-07-27T05:21:46.013Z,588.00
2022-07-27T05:22:45.996Z,612.00
2022-07-27T05:23:45.983Z,676.00
2022-07-27T05:24:45.970Z,824.00
2022-07-27T05:25:45.971Z,988.00
2022-07-27T05:26:45.963Z,1072.00
2022-07-27T05:27:54.345Z,1416.00
2022-07-27T05:28:46.933Z,2944.00
2022-07-27T05:29:45.914Z,2596.00
2022-07-27T05:30:45.903Z,2612.00
2022-07-27T05:31:45.937Z,1616.00
2022-07-27T05:32:45.882Z,2136.00
2022-07-27T05:33:48.762Z,2272.00
2022-07-27T05:34:45.882Z,2564.00
2022-07-27T05:35:45.848Z,2292.00
2022-07-27T05:36:45.855Z,3532.00
2022-07-27T05:37:45.820Z,4272.00
2022-07-27T05:38:45.816Z,5272.00
2022-07-27T05:39:45.825Z,5892.00
2022-07-27T05:40:45.791Z,8388.00
2022-07-27T05:41:45.782Z,11368.00
2022-07-27T05:42:45.812Z,11352.00
2022-07-27T05:43:45.766Z,7544.00
2022-07-27T05:44:45.752Z,4140.00
2022-07-27T05:45:45.848Z,4128.00
2022-07-27T05:46:45.778Z,3692.00
2022-07-27T05:47:45.732Z,3252.00
2022-07-27T05:48:45.767Z,3048.00
2022-07-27T05:49:45.685Z,2384.00
2022-07-27T05:50:45.680Z,2676.00
2022-07-27T05:51:45.678Z,2564.00
2022-07-27T05:52:45.651Z,3152.00
2022-07-27T05:53:45.640Z,7104.00
2022-07-27T05:54:45.626Z,11024.00
2022-07-27T05:55:58.077Z,6884.00
2022-07-27T05:56:46.621Z,9952.00
2022-07-27T05:57:45.592Z,15424.00
2022-07-27T05:58:45.580Z,3308.00
2022-07-27T05:59:45.583Z,4180.00
2022-07-27T06:00:45.579Z,5796.00
2022-07-27T06:01:45.551Z,3752.00
2022-07-27T06:02:45.548Z,3140.00
2022-07-27T06:03:45.620Z,2904.00
2022-07-27T06:04:45.521Z,3624.00
2022-07-27T06:05:45.503Z,5196.00
2022-07-27T06:06:45.491Z,3328.00
2022-07-27T06:07:45.499Z,4888.00
2022-07-27T06:08:45.480Z,3720.00
2022-07-27T06:09:45.458Z,4512.00
2022-07-27T06:10:45.444Z,4216.00
2022-07-27T06:11:45.434Z,5356.00
2022-07-27T06:12:45.437Z,3884.00
2022-07-27T06:13:45.412Z,3736.00
2022-07-27T06:14:45.408Z,4976.00
2022-07-27T06:15:46.388Z,18240.00
2022-07-27T06:16:45.509Z,14400.00
2022-07-27T06:17:45.387Z,18336.00
2022-07-27T06:18:45.395Z,6128.00
2022-07-27T06:19:45.349Z,6060.00
2022-07-27T06:20:45.332Z,6664.00
2022-07-27T06:21:49.011Z,5784.00
2022-07-27T06:22:46.333Z,7932.00
2022-07-27T06:23:45.321Z,6700.00
2022-07-27T06:24:45.284Z,17056.00
2022-07-27T06:25:45.283Z,11800.00
2022-07-27T06:26:45.262Z,14720.00
2022-07-27T06:27:45.253Z,15936.00
2022-07-27T06:28:45.269Z,15584.00
2022-07-27T06:29:45.233Z,17760.00
2022-07-27T06:30:45.221Z,17120.00
2022-07-27T06:31:45.302Z,16384.00
2022-07-27T06:32:45.198Z,15040.00
2022-07-27T06:33:46.161Z,16480.00
2022-07-27T06:34:46.184Z,16064.00
2022-07-27T06:35:45.188Z,16704.00
2022-07-27T06:36:45.163Z,16992.00
2022-07-27T06:37:45.155Z,3660.00
2022-07-27T06:38:45.130Z,4508.00
2022-07-27T06:39:45.133Z,3692.00
2022-07-27T06:40:45.105Z,3428.00
2022-07-27T06:41:45.097Z,7280.00
2022-07-27T06:42:45.099Z,16896.00
2022-07-27T06:43:45.076Z,17024.00
2022-07-27T06:44:45.078Z,19808.00
2022-07-27T06:45:45.054Z,21376.00
2022-07-27T06:46:45.097Z,20608.00
2022-07-27T06:47:49.744Z,17120.00
2022-07-27T06:48:46.116Z,16288.00
2022-07-27T06:49:45.007Z,16800.00
2022-07-27T06:50:44.991Z,18432.00
2022-07-27T06:51:44.999Z,19520.00
2022-07-27T06:52:44.970Z,18464.00
2022-07-27T06:53:44.963Z,16768.00
2022-07-27T06:54:44.962Z,17152.00
2022-07-27T06:55:44.945Z,22240.00
2022-07-27T06:56:44.946Z,26016.00
2022-07-27T06:57:44.924Z,23616.00
2022-07-27T06:58:44.927Z,24416.00
2022-07-27T06:59:44.906Z,29696.00
2022-07-27T07:00:45.013Z,28320.00
2022-07-27T07:01:48.623Z,13824.00
2022-07-27T07:02:44.862Z,4832.00
2022-07-27T07:03:44.947Z,4496.00
2022-07-27T07:04:44.855Z,4188.00
2022-07-27T07:05:44.846Z,4124.00
2022-07-27T07:06:44.815Z,4068.00
2022-07-27T07:07:44.808Z,3952.00
2022-07-27T07:08:44.812Z,3872.00
2022-07-27T07:09:44.796Z,3852.00
2022-07-27T07:10:44.825Z,3796.00
2022-07-27T07:11:44.765Z,3736.00
2022-07-27T07:12:44.751Z,3684.00
2022-07-27T07:13:45.169Z,3684.00
2022-07-27T07:14:44.728Z,3596.00
2022-07-27T07:15:44.749Z,3596.00
2022-07-27T07:16:44.771Z,3608.00
2022-07-27T07:17:44.718Z,3612.00
2022-07-27T07:18:48.882Z,3736.00
2022-07-27T07:19:45.691Z,3840.00
2022-07-27T07:20:44.676Z,3852.00
2022-07-27T07:21:44.660Z,3656.00
2022-07-27T07:22:44.650Z,3668.00
2022-07-27T07:23:44.916Z,3124.00
2022-07-27T07:24:44.613Z,3392.00
2022-07-27T07:25:44.619Z,3868.00
2022-07-27T07:26:44.611Z,3852.00
2022-07-27T07:27:44.595Z,3900.00
2022-07-27T07:28:44.569Z,3780.00
2022-07-27T07:29:44.580Z,3284.00
2022-07-27T07:30:44.574Z,2232.00
2022-07-27T07:31:44.640Z,2344.00
2022-07-27T07:32:44.551Z,2620.00
2022-07-27T07:33:44.524Z,4340.00
2022-07-27T07:34:44.529Z,3600.00
2022-07-27T07:36:12.901Z,4172.00
2022-07-27T07:36:45.482Z,2464.00
2022-07-27T07:37:44.476Z,2416.00
2022-07-27T07:38:44.491Z,2336.00
2022-07-27T07:39:44.459Z,4684.00
2022-07-27T07:40:45.227Z,4640.00
2022-07-27T07:41:44.427Z,3972.00
2022-07-27T07:42:44.421Z,4224.00
2022-07-27T07:43:44.408Z,4348.00
2022-07-27T07:44:44.428Z,4240.00
2022-07-27T07:45:50.383Z,2464.00
2022-07-27T07:46:47.375Z,1996.00
2022-07-27T07:47:44.389Z,2016.00
2022-07-27T07:48:44.417Z,2008.00
2022-07-27T07:49:44.424Z,2084.00
2022-07-27T07:50:44.351Z,2236.00
2022-07-27T07:51:44.313Z,2092.00
2022-07-27T07:52:44.296Z,2788.00
2022-07-27T07:53:44.298Z,2092.00
2022-07-27T07:54:44.279Z,3768.00
2022-07-27T07:55:44.316Z,1968.00
2022-07-27T07:56:44.253Z,1904.00
2022-07-27T07:57:44.253Z,3824.00
2022-07-27T07:58:44.234Z,3916.00
2022-07-27T07:59:44.236Z,4092.00
2022-07-27T08:00:44.215Z,4140.00
2022-07-27T08:01:44.316Z,4272.00
2022-07-27T08:02:44.229Z,4040.00
2022-07-27T08:03:50.278Z,3780.00
2022-07-27T08:04:45.187Z,3656.00
2022-07-27T08:05:44.166Z,3624.00
2022-07-27T08:06:44.155Z,3068.00
2022-07-27T08:07:44.138Z,1656.00
2022-07-27T08:08:44.118Z,1692.00
2022-07-27T08:09:44.111Z,1788.00
2022-07-27T08:10:44.111Z,3576.00
2022-07-27T08:11:44.102Z,3976.00
2022-07-27T08:12:44.074Z,3860.00
2022-07-27T08:13:44.068Z,3872.00
2022-07-27T08:14:44.054Z,3776.00
2022-07-27T08:15:44.163Z,4060.00
2022-07-27T08:16:44.092Z,4168.00
2022-07-27T08:17:44.041Z,4144.00
2022-07-27T08:18:44.019Z,4332.00
2022-07-27T08:19:43.999Z,4152.00
2022-07-27T08:20:44.002Z,3168.00
2022-07-27T08:21:43.990Z,2184.00
2022-07-27T08:22:43.965Z,2124.00
2022-07-27T08:23:43.960Z,2080.00
2022-07-27T08:24:43.939Z,2024.00
2022-07-27T08:25:43.944Z,1956.00
2022-07-27T08:26:43.924Z,1964.00
2022-07-27T08:27:43.943Z,2028.00
2022-07-27T08:28:43.909Z,2112.00
2022-07-27T08:29:43.887Z,2128.00
2022-07-27T08:30:43.890Z,2128.00
2022-07-27T08:31:52.569Z,3808.00
2022-07-27T08:32:44.863Z,2400.00
2022-07-27T08:33:43.858Z,3228.00
2022-07-27T08:34:43.831Z,3080.00
2022-07-27T08:35:43.819Z,3984.00
2022-07-27T08:36:43.823Z,3700.00
2022-07-27T08:37:43.808Z,4088.00
2022-07-27T08:38:43.802Z,3676.00
2022-07-27T08:40:46.480Z,2876.00
2022-07-27T08:41:43.763Z,3720.00
2022-07-27T08:42:43.740Z,1836.00
2022-07-27T08:43:43.737Z,1648.00
2022-07-27T08:44:43.715Z,1928.00
2022-07-27T08:45:43.705Z,1952.00
2022-07-27T08:46:43.802Z,1404.00
2022-07-27T08:47:43.684Z,1396.00
2022-07-27T08:48:43.713Z,1400.00
2022-07-27T08:49:44.315Z,1424.00
2022-07-27T08:50:43.659Z,1476.00
2022-07-27T08:51:47.096Z,1508.00
2022-07-27T08:52:43.628Z,1396.00
2022-07-27T08:53:53.588Z,1604.00
2022-07-27T08:54:44.611Z,1712.00
2022-07-27T08:55:43.596Z,2512.00
2022-07-27T08:56:43.594Z,1896.00
2022-07-27T08:57:43.570Z,3464.00
2022-07-27T08:58:43.563Z,3772.00
2022-07-27T08:59:43.552Z,3668.00
2022-07-27T09:00:43.553Z,4020.00
2022-07-27T09:01:43.579Z,4016.00
2022-07-27T09:02:43.570Z,4244.00
2022-07-27T09:03:43.646Z,4076.00
2022-07-27T09:04:43.491Z,2344.00
2022-07-27T09:05:43.504Z,2300.00
2022-07-27T09:06:43.480Z,2048.00
2022-07-27T09:07:43.457Z,2016.00
2022-07-27T09:08:43.468Z,2020.00
2022-07-27T09:09:43.435Z,2032.00
2022-07-27T09:10:43.421Z,1980.00
2022-07-27T09:11:43.429Z,1960.00
2022-07-27T09:12:43.398Z,1912.00
2022-07-27T09:13:43.423Z,1896.00
2022-07-27T09:14:43.378Z,1852.00
2022-07-27T09:16:12.543Z,1764.00
2022-07-27T09:17:44.201Z,3104.00
2022-07-27T09:17:49.165Z,3408.00
2022-07-27T09:18:44.347Z,3900.00
2022-07-27T09:19:43.320Z,3812.00
2022-07-27T09:20:43.308Z,2792.00
2022-07-27T09:21:43.302Z,2072.00
2022-07-27T09:22:43.287Z,3100.00
2022-07-27T09:23:43.326Z,3204.00
2022-07-27T09:24:47.476Z,2012.00
2022-07-27T09:26:03.192Z,1992.00
2022-07-27T09:26:44.247Z,1628.00
2022-07-27T09:27:43.234Z,2728.00
2022-07-27T09:28:43.225Z,2324.00
2022-07-27T09:29:43.224Z,1580.00
2022-07-27T09:30:43.334Z,3672.00
2022-07-27T09:31:43.296Z,3576.00
2022-07-27T09:32:43.175Z,3492.00
2022-07-27T09:33:43.165Z,3540.00
2022-07-27T09:34:43.179Z,3668.00
2022-07-27T09:35:43.143Z,3764.00
2022-07-27T09:36:43.128Z,3628.00
2022-07-27T09:37:43.127Z,3460.00
2022-07-27T09:38:43.106Z,3648.00
2022-07-27T09:39:43.117Z,2852.00
2022-07-27T09:40:43.098Z,3672.00
2022-07-27T09:41:43.133Z,3792.00
2022-07-27T09:43:14.537Z,3800.00
2022-07-27T09:44:45.012Z,1560.00
2022-07-27T09:45:43.032Z,1528.00
2022-07-27T09:46:44.103Z,1520.00
2022-07-27T09:47:43.008Z,1532.00
2022-07-27T09:48:43.043Z,1544.00
2022-07-27T09:49:43.012Z,1508.00
2022-07-27T09:50:58.353Z,1488.00
2022-07-27T09:51:59.610Z,1440.00
2022-07-27T09:52:43.957Z,1464.00
2022-07-27T09:53:44.183Z,1452.00
2022-07-27T09:54:42.944Z,1328.00
2022-07-27T09:55:42.918Z,1252.00
2022-07-27T09:56:42.918Z,1304.00
2022-07-27T09:57:42.896Z,1240.00
2022-07-27T09:58:42.893Z,1256.00
2022-07-27T09:59:42.880Z,1256.00
2022-07-27T10:00:42.860Z,1228.00
2022-07-27T10:01:48.764Z,1200.00
2022-07-27T10:02:43.834Z,1136.00
2022-07-27T10:03:42.827Z,1140.00
2022-07-27T10:04:42.948Z,1188.00
2022-07-27T10:05:42.808Z,1228.00
2022-07-27T10:07:01.042Z,1236.00
2022-07-27T10:07:43.780Z,1232.00
2022-07-27T10:08:42.768Z,1192.00
2022-07-27T10:09:42.766Z,1244.00
2022-07-27T10:10:42.779Z,1300.00
2022-07-27T10:11:42.749Z,1360.00
2022-07-27T10:12:42.725Z,1360.00
2022-07-27T10:13:43.599Z,1380.00
2022-07-27T10:14:42.716Z,1292.00
2022-07-27T10:15:42.741Z,1280.00
2022-07-27T10:16:42.701Z,1292.00
2022-07-27T10:17:43.968Z,1308.00
2022-07-27T10:18:43.817Z,1400.00
2022-07-27T10:19:43.650Z,1444.00
2022-07-27T10:20:42.657Z,1504.00
2022-07-27T10:21:42.622Z,1532.00
2022-07-27T10:22:42.614Z,1564.00
2022-07-27T10:23:42.598Z,1488.00
2022-07-27T10:24:42.589Z,1492.00
2022-07-27T10:25:42.608Z,1584.00
2022-07-27T10:26:42.593Z,1556.00
2022-07-27T10:27:42.552Z,1612.00
2022-07-27T10:28:42.549Z,1660.00
2022-07-27T10:29:42.530Z,1724.00
2022-07-27T10:30:42.586Z,1784.00
2022-07-27T10:31:42.571Z,1832.00
2022-07-27T10:32:42.503Z,1892.00
2022-07-27T10:33:42.503Z,1792.00
2022-07-27T10:34:42.477Z,1796.00
2022-07-27T10:35:42.468Z,1764.00
2022-07-27T10:36:42.472Z,1788.00
2022-07-27T10:37:42.450Z,1944.00
2022-07-27T10:38:42.435Z,2020.00
2022-07-27T10:39:42.425Z,2112.00
2022-07-27T10:40:42.411Z,2108.00
2022-07-27T10:41:42.412Z,2168.00
2022-07-27T10:42:42.387Z,2148.00
2022-07-27T10:43:42.394Z,2144.00
2022-07-27T10:44:42.370Z,2208.00
2022-07-27T10:45:55.177Z,2272.00
2022-07-27T10:46:43.412Z,2372.00
2022-07-27T10:47:42.329Z,2456.00
2022-07-27T10:48:48.326Z,2392.00
2022-07-27T10:49:43.329Z,2332.00
2022-07-27T10:50:42.307Z,2380.00
2022-07-27T10:51:42.301Z,2468.00
2022-07-27T10:52:42.276Z,2576.00
2022-07-27T10:54:10.382Z,2796.00
2022-07-27T10:54:46.813Z,4180.00
2022-07-27T10:55:43.239Z,5200.00
2022-07-27T10:56:42.247Z,3860.00
2022-07-27T10:57:42.218Z,3964.00
2022-07-27T10:58:42.211Z,3084.00
2022-07-27T11:00:07.605Z,3556.00
2022-07-27T11:00:43.199Z,2920.00
2022-07-27T11:01:42.290Z,2720.00
2022-07-27T11:02:42.177Z,2656.00
2022-07-27T11:03:42.598Z,2608.00
2022-07-27T11:04:42.239Z,2860.00
2022-07-27T11:05:59.688Z,2660.00
2022-07-27T11:07:22.617Z,2648.00
2022-07-27T11:07:45.748Z,2536.00
2022-07-27T11:08:47.552Z,2504.00
2022-07-27T11:10:43.074Z,2508.00
2022-07-27T11:11:42.074Z,2488.00
2022-07-27T11:12:42.075Z,2260.00
2022-07-27T11:13:42.049Z,2172.00
2022-07-27T11:14:42.031Z,2104.00
2022-07-27T11:15:42.014Z,2080.00
2022-07-27T11:16:54.877Z,2124.00
2022-07-27T11:17:58.557Z,2080.00
2022-07-27T11:18:43.022Z,2052.00
2022-07-27T11:19:41.971Z,2052.00
2022-07-27T11:20:41.959Z,2028.00
2022-07-27T11:21:41.967Z,2144.00
2022-07-27T11:23:51.609Z,2196.00
2022-07-27T11:24:42.929Z,2220.00
2022-07-27T11:25:41.903Z,2316.00
2022-07-27T11:26:41.893Z,2412.00
2022-07-27T11:27:41.894Z,2452.00
2022-07-27T11:28:41.872Z,2388.00
2022-07-27T11:29:43.800Z,2364.00
2022-07-27T11:30:41.918Z,2412.00
2022-07-27T11:31:58.587Z,3044.00
2022-07-27T11:32:42.842Z,2488.00
2022-07-27T11:33:41.812Z,2460.00
2022-07-27T11:34:41.799Z,2404.00
2022-07-27T11:35:41.805Z,2432.00
2022-07-27T11:36:41.783Z,2420.00
2022-07-27T11:37:43.264Z,2448.00
2022-07-27T11:38:41.774Z,2532.00
2022-07-27T11:40:37.052Z,2464.00
2022-07-27T11:41:12.791Z,2464.00
2022-07-27T11:42:07.822Z,2520.00
2022-07-27T11:42:42.732Z,2472.00
2022-07-27T11:43:42.120Z,2608.00
2022-07-27T11:44:41.699Z,2540.00
2022-07-27T11:45:41.711Z,2444.00
2022-07-27T11:46:41.674Z,2592.00
2022-07-27T11:47:41.654Z,3056.00
2022-07-27T11:49:04.994Z,2880.00
2022-07-27T11:49:42.678Z,2752.00
2022-07-27T11:50:42.623Z,3180.00
2022-07-27T11:51:41.609Z,3104.00
2022-07-27T11:52:41.621Z,3016.00
2022-07-27T11:53:41.585Z,2932.00
2022-07-27T11:54:41.593Z,2772.00
2022-07-27T11:55:41.563Z,2920.00
2022-07-27T11:56:41.560Z,2772.00
2022-07-27T11:57:41.546Z,2676.00
2022-07-27T11:58:41.563Z,2528.00
2022-07-27T11:59:41.523Z,2528.00
2022-07-27T12:00:41.520Z,2540.00
2022-07-27T12:01:41.496Z,2560.00
2022-07-27T12:02:41.527Z,2520.00
2022-07-27T12:03:47.275Z,2640.00
2022-07-27T12:04:42.565Z,2660.00
2022-07-27T12:05:41.467Z,2644.00
2022-07-27T12:06:41.442Z,2656.00
2022-07-27T12:07:41.430Z,2552.00
2022-07-27T12:08:41.418Z,2640.00
2022-07-27T12:09:41.420Z,2852.00
2022-07-27T12:10:41.397Z,2852.00
2022-07-27T12:11:41.404Z,3308.00
2022-07-27T12:12:41.377Z,3592.00
2022-07-27T12:13:41.379Z,2952.00
2022-07-27T12:14:41.352Z,2628.00
2022-07-27T12:15:46.666Z,2580.00
2022-07-27T12:16:42.382Z,2464.00
2022-07-27T12:17:41.316Z,2516.00
2022-07-27T12:18:41.321Z,2488.00
2022-07-27T12:19:41.291Z,2704.00
2022-07-27T12:20:41.285Z,2744.00
2022-07-27T12:21:45.425Z,2380.00
2022-07-27T12:22:42.273Z,2300.00
2022-07-27T12:23:41.268Z,2200.00
2022-07-27T12:24:41.240Z,2224.00
2022-07-27T12:25:41.227Z,2224.00
2022-07-27T12:26:41.223Z,2120.00
2022-07-27T12:27:41.202Z,2344.00
2022-07-27T12:28:41.218Z,2324.00
2022-07-27T12:29:41.196Z,2188.00
2022-07-27T12:30:41.229Z,2024.00
2022-07-27T12:31:41.161Z,1984.00
2022-07-27T12:32:41.162Z,1968.00